sensor_id;sensor_type;location;lat;lon;timestamp;pressure;altitude;pressure_sealevel;temperature;humidity
9474;BME280;8865;47.636;7.692;2023-02-17T00:01:15;99345.63;;;8.66;100.00
9474;BME280;8865;47.636;7.692;2023-02-17T00:03:42;99346.59;;;8.65;100.00
9474;BME280;8865;47.636;7.692;2023-02-17T00:06:09;99344.91;;;8.64;100.00
9474;BME280;8865;47.636;7.692;2023-02-17T00:08:36;99347.78;;;8.59;100.00
9474;BME280;8865;47.636;7.692;2023-02-17T00:11:02;99348.44;;;8.48;100.00
9474;BME280;8865;47.636;7.692;2023-02-17T00:13:28;99351.69;;;8.52;100.00
9474;BME280;8865;47.636;7.692;2023-02-17T00:15:54;99338.53;;;8.53;100.00
9474;BME280;8865;47.636;7.692;2023-02-17T00:18:21;99357.97;;;8.49;100.00
9474;BME280;8865;47.636;7.692;2023-02-17T00:20:47;99350.97;;;8.50;100.00
9474;BME280;8865;47.636;7.692;2023-02-17T00:23:13;99349.53;;;8.44;100.00
9474;BME280;8865;47.636;7.692;2023-02-17T00:25:39;99350.31;;;8.46;100.00
9474;BME280;8865;47.636;7.692;2023-02-17T00:28:05;99337.06;;;8.49;100.00
9474;BME280;8865;47.636;7.692;2023-02-17T00:30:30;99346.09;;;8.44;100.00
9474;BME280;8865;47.636;7.692;2023-02-17T00:32:57;99343.31;;;8.47;100.00
9474;BME280;8865;47.636;7.692;2023-02-17T00:35:22;99348.25;;;8.51;100.00
9474;BME280;8865;47.636;7.692;2023-02-17T00:37:48;99345.72;;;8.50;100.00
9474;BME280;8865;47.636;7.692;2023-02-17T00:40:14;99349.00;;;8.53;100.00
9474;BME280;8865;47.636;7.692;2023-02-17T00:42:41;99349.09;;;8.52;100.00
9474;BME280;8865;47.636;7.692;2023-02-17T00:45:07;99355.91;;;8.54;100.00
9474;BME280;8865;47.636;7.692;2023-02-17T00:47:33;99347.97;;;8.56;100.00
9474;BME280;8865;47.636;7.692;2023-02-17T00:49:59;99350.78;;;8.53;100.00
9474;BME280;8865;47.636;7.692;2023-02-17T00:52:25;99348.81;;;8.56;100.00
9474;BME280;8865;47.636;7.692;2023-02-17T00:54:51;99363.09;;;8.51;100.00
9474;BME280;8865;47.636;7.692;2023-02-17T00:57:17;99358.69;;;8.51;100.00
9474;BME280;8865;47.636;7.692;2023-02-17T00:59:43;99349.84;;;8.54;100.00
9474;BME280;8865;47.636;7.692;2023-02-17T01:02:09;99360.09;;;8.57;100.00
9474;BME280;8865;47.636;7.692;2023-02-17T01:04:35;99356.81;;;8.53;100.00
9474;BME280;8865;47.636;7.692;2023-02-17T01:07:01;99358.50;;;8.54;100.00
9474;BME280;8865;47.636;7.692;2023-02-17T01:09:27;99359.06;;;8.60;100.00
9474;BME280;8865;47.636;7.692;2023-02-17T01:11:53;99359.06;;;8.60;100.00
9474;BME280;8865;47.636;7.692;2023-02-17T01:14:19;99358.88;;;8.63;100.00
9474;BME280;8865;47.636;7.692;2023-02-17T01:16:47;99359.84;;;8.62;100.00
9474;BME280;8865;47.636;7.692;2023-02-17T01:19:16;99352.91;;;8.61;100.00
9474;BME280;8865;47.636;7.692;2023-02-17T01:21:42;99354.03;;;8.56;100.00
9474;BME280;8865;47.636;7.692;2023-02-17T01:24:10;99360.47;;;8.51;100.00
9474;BME280;8865;47.636;7.692;2023-02-17T01:26:37;99352.31;;;8.41;100.00
9474;BME280;8865;47.636;7.692;2023-02-17T01:29:05;99352.31;;;8.41;100.00
9474;BME280;8865;47.636;7.692;2023-02-17T01:31:31;99356.78;;;8.39;100.00
9474;BME280;8865;47.636;7.692;2023-02-17T01:33:59;99354.66;;;8.46;100.00
9474;BME280;8865;47.636;7.692;2023-02-17T01:36:26;99344.22;;;8.46;100.00
9474;BME280;8865;47.636;7.692;2023-02-17T01:38:53;99349.69;;;8.41;100.00
9474;BME280;8865;47.636;7.692;2023-02-17T01:41:21;99358.16;;;8.46;100.00
9474;BME280;8865;47.636;7.692;2023-02-17T01:46:36;99348.09;;;8.24;100.00
9474;BME280;8865;47.636;7.692;2023-02-17T01:49:13;99350.16;;;8.33;100.00
9474;BME280;8865;47.636;7.692;2023-02-17T01:51:40;99348.19;;;8.37;100.00
9474;BME280;8865;47.636;7.692;2023-02-17T01:54:13;99342.22;;;8.35;100.00
9474;BME280;8865;47.636;7.692;2023-02-17T01:56:42;99342.69;;;8.41;100.00
9474;BME280;8865;47.636;7.692;2023-02-17T01:59:16;99332.97;;;8.45;100.00
9474;BME280;8865;47.636;7.692;2023-02-17T02:01:44;99331.59;;;8.38;100.00
9474;BME280;8865;47.636;7.692;2023-02-17T02:04:11;99339.88;;;8.46;100.00
9474;BME280;8865;47.636;7.692;2023-02-17T02:06:40;99335.13;;;8.37;100.00
9474;BME280;8865;47.636;7.692;2023-02-17T02:09:11;99330.09;;;8.34;100.00
9474;BME280;8865;47.636;7.692;2023-02-17T02:11:39;99328.34;;;8.34;100.00
9474;BME280;8865;47.636;7.692;2023-02-17T02:14:07;99337.63;;;8.10;100.00
9474;BME280;8865;47.636;7.692;2023-02-17T02:16:44;99330.56;;;8.26;100.00
9474;BME280;8865;47.636;7.692;2023-02-17T02:27:47;99326.34;;;8.54;100.00
9474;BME280;8865;47.636;7.692;2023-02-17T02:36:14;99326.81;;;8.61;100.00
9474;BME280;8865;47.636;7.692;2023-02-17T02:39:06;99325.13;;;8.60;100.00
9474;BME280;8865;47.636;7.692;2023-02-17T02:41:40;99321.03;;;8.55;100.00
9474;BME280;8865;47.636;7.692;2023-02-17T02:44:11;99326.16;;;8.57;100.00
9474;BME280;8865;47.636;7.692;2023-02-17T02:46:37;99327.00;;;8.57;100.00
9474;BME280;8865;47.636;7.692;2023-02-17T02:49:03;99321.03;;;8.55;100.00
9474;BME280;8865;47.636;7.692;2023-02-17T02:51:48;99324.09;;;8.62;100.00
9474;BME280;8865;47.636;7.692;2023-02-17T02:57:07;99317.19;;;8.61;100.00
9474;BME280;8865;47.636;7.692;2023-02-17T03:02:44;99311.50;;;8.54;100.00
9474;BME280;8865;47.636;7.692;2023-02-17T03:08:17;99305.84;;;8.48;100.00
9474;BME280;8865;47.636;7.692;2023-02-17T03:10:52;99300.50;;;8.49;100.00
9474;BME280;8865;47.636;7.692;2023-02-17T03:13:19;99300.50;;;8.49;100.00
9474;BME280;8865;47.636;7.692;2023-02-17T03:15:46;99298.63;;;8.51;100.00
9474;BME280;8865;47.636;7.692;2023-02-17T03:18:13;99292.88;;;8.46;100.00
9474;BME280;8865;47.636;7.692;2023-02-17T03:20:45;99314.44;;;8.34;100.00
9474;BME280;8865;47.636;7.692;2023-02-17T03:23:13;99305.97;;;8.30;100.00
9474;BME280;8865;47.636;7.692;2023-02-17T03:25:40;99310.81;;;8.36;100.00
9474;BME280;8865;47.636;7.692;2023-02-17T03:28:06;99304.56;;;8.39;100.00
9474;BME280;8865;47.636;7.692;2023-02-17T03:30:33;99303.31;;;8.46;100.00
9474;BME280;8865;47.636;7.692;2023-02-17T03:33:00;99302.34;;;8.47;100.00
9474;BME280;8865;47.636;7.692;2023-02-17T03:35:26;99299.75;;;8.47;100.00
9474;BME280;8865;47.636;7.692;2023-02-17T03:37:52;99310.00;;;8.50;100.00
9474;BME280;8865;47.636;7.692;2023-02-17T03:40:18;99303.13;;;8.49;100.00
9474;BME280;8865;47.636;7.692;2023-02-17T03:42:44;99303.47;;;8.43;100.00
9474;BME280;8865;47.636;7.692;2023-02-17T03:45:10;99312.91;;;8.46;100.00
9474;BME280;8865;47.636;7.692;2023-02-17T03:47:36;99309.69;;;8.40;100.00
9474;BME280;8865;47.636;7.692;2023-02-17T03:50:02;99313.31;;;8.38;100.00
9474;BME280;8865;47.636;7.692;2023-02-17T03:52:28;99310.81;;;8.36;100.00
9474;BME280;8865;47.636;7.692;2023-02-17T03:54:54;99316.47;;;8.45;100.00
9474;BME280;8865;47.636;7.692;2023-02-17T03:57:20;99311.25;;;8.45;100.00
9474;BME280;8865;47.636;7.692;2023-02-17T03:59:46;99320.00;;;8.44;100.00
9474;BME280;8865;47.636;7.692;2023-02-17T04:02:12;99322.50;;;8.45;100.00
9474;BME280;8865;47.636;7.692;2023-02-17T04:04:38;99321.25;;;8.36;100.00
9474;BME280;8865;47.636;7.692;2023-02-17T04:07:04;99313.13;;;8.27;100.00
9474;BME280;8865;47.636;7.692;2023-02-17T04:09:30;99321.34;;;8.35;100.00
9474;BME280;8865;47.636;7.692;2023-02-17T04:11:56;99327.81;;;8.44;100.00
9474;BME280;8865;47.636;7.692;2023-02-17T04:14:22;99322.50;;;8.45;100.00
9474;BME280;8865;47.636;7.692;2023-02-17T04:16:48;99322.31;;;8.48;100.00
9474;BME280;8865;47.636;7.692;2023-02-17T04:19:14;99318.59;;;8.52;100.00
9474;BME280;8865;47.636;7.692;2023-02-17T04:21:40;99314.22;;;8.53;100.00
9474;BME280;8865;47.636;7.692;2023-02-17T04:24:06;99319.34;;;8.54;100.00
9474;BME280;8865;47.636;7.692;2023-02-17T04:26:32;99311.59;;;8.53;100.00
9474;BME280;8865;47.636;7.692;2023-02-17T04:28:58;99314.31;;;8.51;100.00
9474;BME280;8865;47.636;7.692;2023-02-17T04:31:24;99311.16;;;8.46;100.00
9474;BME280;8865;47.636;7.692;2023-02-17T04:33:52;99305.66;;;8.51;100.00
9474;BME280;8865;47.636;7.692;2023-02-17T04:36:18;99316.00;;;8.52;100.00
9474;BME280;8865;47.636;7.692;2023-02-17T04:38:44;99307.69;;;8.46;100.00
9474;BME280;8865;47.636;7.692;2023-02-17T04:41:10;99304.38;;;8.42;100.00
9474;BME280;8865;47.636;7.692;2023-02-17T04:43:36;99306.00;;;8.45;100.00
9474;BME280;8865;47.636;7.692;2023-02-17T04:46:02;99306.31;;;8.38;100.00
9474;BME280;8865;47.636;7.692;2023-02-17T04:48:28;99311.88;;;8.48;100.00
9474;BME280;8865;47.636;7.692;2023-02-17T04:50:55;99311.59;;;8.53;100.00
9474;BME280;8865;47.636;7.692;2023-02-17T04:53:21;99300.41;;;8.51;100.00
9474;BME280;8865;47.636;7.692;2023-02-17T04:55:51;99302.75;;;8.55;100.00
9474;BME280;8865;47.636;7.692;2023-02-17T04:58:18;99308.06;;;8.54;100.00
9474;BME280;8865;47.636;7.692;2023-02-17T05:00:48;99299.09;;;8.58;100.00
9474;BME280;8865;47.636;7.692;2023-02-17T05:03:15;99302.75;;;8.55;100.00
9474;BME280;8865;47.636;7.692;2023-02-17T05:05:41;99302.75;;;8.55;100.00
9474;BME280;8865;47.636;7.692;2023-02-17T05:08:07;99301.91;;;8.55;100.00
9474;BME280;8865;47.636;7.692;2023-02-17T05:10:33;99297.44;;;8.57;100.00
9474;BME280;8865;47.636;7.692;2023-02-17T05:12:59;99294.81;;;8.57;100.00
9474;BME280;8865;47.636;7.692;2023-02-17T05:15:25;99294.72;;;8.58;100.00
9474;BME280;8865;47.636;7.692;2023-02-17T05:17:52;99300.97;;;8.56;100.00
9474;BME280;8865;47.636;7.692;2023-02-17T05:20:18;99305.47;;;8.54;100.00
9474;BME280;8865;47.636;7.692;2023-02-17T05:22:44;99306.38;;;8.53;100.00
9474;BME280;8865;47.636;7.692;2023-02-17T05:25:10;99302.16;;;8.50;100.00
9474;BME280;8865;47.636;7.692;2023-02-17T05:27:37;99299.38;;;8.53;100.00
9474;BME280;8865;47.636;7.692;2023-02-17T05:30:03;99299.28;;;8.55;100.00
9474;BME280;8865;47.636;7.692;2023-02-17T05:32:30;99297.53;;;8.55;100.00
9474;BME280;8865;47.636;7.692;2023-02-17T05:34:55;99300.41;;;8.51;100.00
9474;BME280;8865;47.636;7.692;2023-02-17T05:37:21;99307.50;;;8.49;100.00
9474;BME280;8865;47.636;7.692;2023-02-17T05:39:47;99310.09;;;8.49;100.00
9474;BME280;8865;47.636;7.692;2023-02-17T05:42:13;99309.81;;;8.53;100.00
9474;BME280;8865;47.636;7.692;2023-02-17T05:44:39;99314.13;;;8.54;100.00
9474;BME280;8865;47.636;7.692;2023-02-17T05:47:05;99316.38;;;8.46;100.00
9474;BME280;8865;47.636;7.692;2023-02-17T05:49:32;99314.91;;;8.40;100.00
9474;BME280;8865;47.636;7.692;2023-02-17T05:51:58;99323.25;;;8.47;100.00
9474;BME280;8865;47.636;7.692;2023-02-17T05:54:24;99312.53;;;8.52;100.00
9474;BME280;8865;47.636;7.692;2023-02-17T05:56:50;99316.72;;;8.54;100.00
9474;BME280;8865;47.636;7.692;2023-02-17T05:59:16;99320.16;;;8.55;100.00
9474;BME280;8865;47.636;7.692;2023-02-17T06:01:42;99320.94;;;8.57;100.00
9474;BME280;8865;47.636;7.692;2023-02-17T06:04:07;99321.78;;;8.57;100.00
9474;BME280;8865;47.636;7.692;2023-02-17T06:06:33;99325.31;;;8.56;100.00
9474;BME280;8865;47.636;7.692;2023-02-17T06:08:59;99323.72;;;8.54;100.00
9474;BME280;8865;47.636;7.692;2023-02-17T06:11:25;99315.63;;;8.58;100.00
9474;BME280;8865;47.636;7.692;2023-02-17T06:13:51;99322.41;;;8.61;100.00
9474;BME280;8865;47.636;7.692;2023-02-17T06:16:17;99324.94;;;8.63;100.00
9474;BME280;8865;47.636;7.692;2023-02-17T06:18:43;99332.66;;;8.64;100.00
9474;BME280;8865;47.636;7.692;2023-02-17T06:21:09;99329.31;;;8.62;100.00
9474;BME280;8865;47.636;7.692;2023-02-17T06:23:35;99327.91;;;8.56;100.00
9474;BME280;8865;47.636;7.692;2023-02-17T06:26:01;99336.78;;;8.54;100.00
9474;BME280;8865;47.636;7.692;2023-02-17T06:28:27;99338.63;;;8.52;100.00
9474;BME280;8865;47.636;7.692;2023-02-17T06:30:53;99343.75;;;8.53;100.00
9474;BME280;8865;47.636;7.692;2023-02-17T06:33:19;99346.19;;;8.56;100.00
9474;BME280;8865;47.636;7.692;2023-02-17T06:35:50;99338.25;;;8.58;100.00
9474;BME280;8865;47.636;7.692;2023-02-17T06:38:16;99341.47;;;8.63;100.00
9474;BME280;8865;47.636;7.692;2023-02-17T06:40:42;99349.94;;;8.67;100.00
9474;BME280;8865;47.636;7.692;2023-02-17T06:43:09;99360.38;;;8.67;100.00
9474;BME280;8865;47.636;7.692;2023-02-17T06:45:34;99360.38;;;8.67;100.00
9474;BME280;8865;47.636;7.692;2023-02-17T06:48:00;99370.84;;;8.67;100.00
9474;BME280;8865;47.636;7.692;2023-02-17T06:50:26;99364.88;;;8.65;100.00
9474;BME280;8865;47.636;7.692;2023-02-17T06:52:52;99363.91;;;8.66;100.00
9474;BME280;8865;47.636;7.692;2023-02-17T06:55:18;99356.84;;;8.68;100.00
9474;BME280;8865;47.636;7.692;2023-02-17T06:57:44;99366.44;;;8.67;100.00
9474;BME280;8865;47.636;7.692;2023-02-17T07:00:11;99371.75;;;8.66;100.00
9474;BME280;8865;47.636;7.692;2023-02-17T07:02:38;99355.91;;;8.69;100.00
9474;BME280;8865;47.636;7.692;2023-02-17T07:05:05;99363.34;;;8.75;100.00
9474;BME280;8865;47.636;7.692;2023-02-17T07:07:31;99360.56;;;8.78;100.00
9474;BME280;8865;47.636;7.692;2023-02-17T07:09:57;99365.59;;;8.81;100.00
9474;BME280;8865;47.636;7.692;2023-02-17T07:12:23;99366.19;;;8.86;100.00
9474;BME280;8865;47.636;7.692;2023-02-17T07:14:49;99375.47;;;8.90;100.00
9474;BME280;8865;47.636;7.692;2023-02-17T07:17:15;99378.88;;;8.92;100.00
9474;BME280;8865;47.636;7.692;2023-02-17T07:19:41;99375.19;;;8.95;100.00
9474;BME280;8865;47.636;7.692;2023-02-17T07:22:07;99377.81;;;8.95;100.00
9474;BME280;8865;47.636;7.692;2023-02-17T07:24:33;99381.84;;;9.01;100.00
9474;BME280;8865;47.636;7.692;2023-02-17T07:26:59;99376.31;;;9.05;100.00
9474;BME280;8865;47.636;7.692;2023-02-17T07:29:26;99382.19;;;9.09;100.00
9474;BME280;8865;47.636;7.692;2023-02-17T07:31:52;99370.25;;;9.05;100.00
9474;BME280;8865;47.636;7.692;2023-02-17T07:34:18;99382.38;;;9.06;100.00
9474;BME280;8865;47.636;7.692;2023-02-17T07:36:44;99387.88;;;9.01;100.00
9474;BME280;8865;47.636;7.692;2023-02-17T07:39:10;99396.22;;;9.08;100.00
9474;BME280;8865;47.636;7.692;2023-02-17T07:41:36;99402.91;;;9.12;100.00
9474;BME280;8865;47.636;7.692;2023-02-17T07:44:02;99404.94;;;9.21;100.00
9474;BME280;8865;47.636;7.692;2023-02-17T07:46:28;99402.16;;;9.24;100.00
9474;BME280;8865;47.636;7.692;2023-02-17T07:48:56;99392.16;;;9.31;100.00
9474;BME280;8865;47.636;7.692;2023-02-17T07:51:22;99402.16;;;9.39;100.00
9474;BME280;8865;47.636;7.692;2023-02-17T07:53:50;99411.25;;;9.46;100.00
9474;BME280;8865;47.636;7.692;2023-02-17T07:56:17;99418.94;;;9.49;100.00
9474;BME280;8865;47.636;7.692;2023-02-17T07:58:44;99418.66;;;9.54;100.00
9474;BME280;8865;47.636;7.692;2023-02-17T08:01:16;99414.78;;;9.59;100.00
9474;BME280;8865;47.636;7.692;2023-02-17T08:03:43;99422.16;;;9.67;100.00
9474;BME280;8865;47.636;7.692;2023-02-17T08:06:10;99423.75;;;9.70;100.00
9474;BME280;8865;47.636;7.692;2023-02-17T08:08:37;99429.50;;;9.75;100.00
9474;BME280;8865;47.636;7.692;2023-02-17T08:11:21;99429.13;;;9.81;100.00
9474;BME280;8865;47.636;7.692;2023-02-17T08:14:06;99428.81;;;9.86;100.00
9474;BME280;8865;47.636;7.692;2023-02-17T08:16:31;99427.59;;;9.91;100.00
9474;BME280;8865;47.636;7.692;2023-02-17T08:18:58;99426.06;;;10.01;100.00
9474;BME280;8865;47.636;7.692;2023-02-17T08:21:25;99435.28;;;10.07;100.00
9474;BME280;8865;47.636;7.692;2023-02-17T08:23:52;99432.16;;;10.15;100.00
9474;BME280;8865;47.636;7.692;2023-02-17T08:26:19;99442.88;;;10.25;100.00
9474;BME280;8865;47.636;7.692;2023-02-17T08:28:45;99431.72;;;10.35;100.00
9474;BME280;8865;47.636;7.692;2023-02-17T08:31:21;99435.19;;;10.49;100.00
9474;BME280;8865;47.636;7.692;2023-02-17T08:33:48;99436.16;;;10.61;100.00
9474;BME280;8865;47.636;7.692;2023-02-17T08:36:14;99441.31;;;10.75;100.00
9474;BME280;8865;47.636;7.692;2023-02-17T08:38:40;99447.38;;;10.88;100.00
9474;BME280;8865;47.636;7.692;2023-02-17T08:41:14;99448.13;;;11.03;100.00
9474;BME280;8865;47.636;7.692;2023-02-17T08:43:41;99456.41;;;11.10;100.00
9474;BME280;8865;47.636;7.692;2023-02-17T08:46:09;99459.13;;;11.21;100.00
9474;BME280;8865;47.636;7.692;2023-02-17T08:48:35;99462.25;;;11.26;100.00
9474;BME280;8865;47.636;7.692;2023-02-17T08:51:02;99470.03;;;11.28;100.00
9474;BME280;8865;47.636;7.692;2023-02-17T08:53:28;99470.06;;;11.15;100.00
9474;BME280;8865;47.636;7.692;2023-02-17T08:55:55;99477.91;;;11.15;100.00
9474;BME280;8865;47.636;7.692;2023-02-17T08:58:21;99477.06;;;11.02;100.00
9474;BME280;8865;47.636;7.692;2023-02-17T09:00:47;99483.91;;;11.04;100.00
9474;BME280;8865;47.636;7.692;2023-02-17T09:03:13;99480.09;;;11.08;100.00
9474;BME280;8865;47.636;7.692;2023-02-17T09:05:39;99483.06;;;11.17;100.00
9474;BME280;8865;47.636;7.692;2023-02-17T09:08:05;99477.59;;;11.07;100.00
9474;BME280;8865;47.636;7.692;2023-02-17T09:10:32;99480.72;;;10.99;100.00
9474;BME280;8865;47.636;7.692;2023-02-17T09:12:58;99478.03;;;11.14;100.00
9474;BME280;8865;47.636;7.692;2023-02-17T09:15:24;99474.22;;;11.31;100.00
9474;BME280;8865;47.636;7.692;2023-02-17T09:17:50;99486.69;;;11.40;100.00
9474;BME280;8865;47.636;7.692;2023-02-17T09:20:16;99493.19;;;11.47;100.00
9474;BME280;8865;47.636;7.692;2023-02-17T09:22:44;99493.59;;;11.54;100.00
9474;BME280;8865;47.636;7.692;2023-02-17T09:25:10;99490.06;;;11.42;100.00
9474;BME280;8865;47.636;7.692;2023-02-17T09:27:36;99490.44;;;11.49;100.00
9474;BME280;8865;47.636;7.692;2023-02-17T09:30:03;99484.47;;;11.47;100.00
9474;BME280;8865;47.636;7.692;2023-02-17T09:32:29;99489.22;;;11.41;100.00
9474;BME280;8865;47.636;7.692;2023-02-17T09:34:55;99483.84;;;11.56;100.00
9474;BME280;8865;47.636;7.692;2023-02-17T09:37:21;99487.72;;;11.50;100.00
9474;BME280;8865;47.636;7.692;2023-02-17T09:39:48;99500.84;;;11.50;100.00
9474;BME280;8865;47.636;7.692;2023-02-17T09:42:22;99505.91;;;11.40;100.00
9474;BME280;8865;47.636;7.692;2023-02-17T09:45:10;99509.88;;;11.46;100.00
9474;BME280;8865;47.636;7.692;2023-02-17T09:47:41;99507.78;;;11.51;100.00
9474;BME280;8865;47.636;7.692;2023-02-17T09:50:13;99506.94;;;11.38;100.00
9474;BME280;8865;47.636;7.692;2023-02-17T09:53:02;99502.94;;;11.45;100.00
9474;BME280;8865;47.636;7.692;2023-02-17T09:55:37;99498.84;;;11.41;100.00
9474;BME280;8865;47.636;7.692;2023-02-17T09:58:26;99503.78;;;11.46;100.00
9474;BME280;8865;47.636;7.692;2023-02-17T10:00:59;99509.47;;;11.52;100.00
9474;BME280;8865;47.636;7.692;2023-02-17T10:03:40;99502.19;;;11.56;100.00
9474;BME280;8865;47.636;7.692;2023-02-17T10:14:36;99498.31;;;11.61;100.00
9474;BME280;8865;47.636;7.692;2023-02-17T10:19:47;99504.94;;;11.67;100.00
9474;BME280;8865;47.636;7.692;2023-02-17T10:22:17;99496.00;;;11.57;100.00
9474;BME280;8865;47.636;7.692;2023-02-17T10:24:44;99502.09;;;11.57;100.00
9474;BME280;8865;47.636;7.692;2023-02-17T10:27:33;99497.50;;;11.61;100.00
9474;BME280;8865;47.636;7.692;2023-02-17T10:32:27;99494.66;;;11.64;100.00
9474;BME280;8865;47.636;7.692;2023-02-17T10:35:09;99507.13;;;11.73;100.00
9474;BME280;8865;47.636;7.692;2023-02-17T10:40:21;99509.19;;;11.81;100.00
9474;BME280;8865;47.636;7.692;2023-02-17T10:42:57;99509.81;;;11.85;100.00
9474;BME280;8865;47.636;7.692;2023-02-17T10:45:44;99503.41;;;11.89;100.00
9474;BME280;8865;47.636;7.692;2023-02-17T10:48:38;99508.25;;;11.95;100.00
9474;BME280;8865;47.636;7.692;2023-02-17T10:51:05;99492.97;;;12.00;100.00
9474;BME280;8865;47.636;7.692;2023-02-17T10:53:35;99497.69;;;12.08;100.00
9474;BME280;8865;47.636;7.692;2023-02-17T10:56:13;99493.78;;;12.13;100.00
9474;BME280;8865;47.636;7.692;2023-02-17T11:01:35;99494.66;;;12.25;100.00
9474;BME280;8865;47.636;7.692;2023-02-17T11:04:07;99484.78;;;12.29;100.00
9474;BME280;8865;47.636;7.692;2023-02-17T11:06:41;99477.72;;;12.29;100.00
9474;BME280;8865;47.636;7.692;2023-02-17T11:12:00;99474.16;;;12.30;100.00
9474;BME280;8865;47.636;7.692;2023-02-17T11:14:30;99480.84;;;12.35;100.00
9474;BME280;8865;47.636;7.692;2023-02-17T11:17:12;99476.22;;;12.38;100.00
9474;BME280;8865;47.636;7.692;2023-02-17T11:19:39;99475.47;;;12.36;100.00
9474;BME280;8865;47.636;7.692;2023-02-17T11:22:26;99472.50;;;12.41;100.00
9474;BME280;8865;47.636;7.692;2023-02-17T11:24:59;99470.38;;;12.46;100.00
9474;BME280;8865;47.636;7.692;2023-02-17T11:27:26;99466.56;;;12.50;100.00
9474;BME280;8865;47.636;7.692;2023-02-17T11:29:52;99471.69;;;12.51;100.00
9474;BME280;8865;47.636;7.692;2023-02-17T11:32:29;99468.34;;;12.49;100.00
9474;BME280;8865;47.636;7.692;2023-02-17T11:34:58;99461.41;;;12.48;100.00
9474;BME280;8865;47.636;7.692;2023-02-17T11:37:31;99472.91;;;12.47;100.00
9474;BME280;8865;47.636;7.692;2023-02-17T11:39:57;99461.53;;;12.47;100.00
9474;BME280;8865;47.636;7.692;2023-02-17T11:42:30;99463.09;;;12.49;100.00
9474;BME280;8865;47.636;7.692;2023-02-17T11:44:58;99455.81;;;12.53;100.00
9474;BME280;8865;47.636;7.692;2023-02-17T11:50:24;99448.34;;;12.71;100.00
9474;BME280;8865;47.636;7.692;2023-02-17T12:09:26;99440.50;;;13.39;100.00
9474;BME280;8865;47.636;7.692;2023-02-17T12:25:55;99429.38;;;14.02;100.00
9474;BME280;8865;47.636;7.692;2023-02-17T12:31:27;99419.31;;;14.07;100.00
9474;BME280;8865;47.636;7.692;2023-02-17T12:34:02;99414.50;;;14.12;100.00
9474;BME280;8865;47.636;7.692;2023-02-17T12:36:33;99414.81;;;14.19;100.00
9474;BME280;8865;47.636;7.692;2023-02-17T12:39:10;99410.59;;;14.27;100.00
9474;BME280;8865;47.636;7.692;2023-02-17T12:41:41;99415.91;;;14.37;100.00
9474;BME280;8865;47.636;7.692;2023-02-17T12:44:20;99410.78;;;14.36;100.00
9474;BME280;8865;47.636;7.692;2023-02-17T12:46:50;99414.25;;;14.36;100.00
9474;BME280;8865;47.636;7.692;2023-02-17T12:49:26;99411.25;;;14.41;100.00
9474;BME280;8865;47.636;7.692;2023-02-17T12:52:03;99403.06;;;14.23;100.00
9474;BME280;8865;47.636;7.692;2023-02-17T12:54:35;99409.16;;;14.23;100.00
9474;BME280;8865;47.636;7.692;2023-02-17T12:59:36;99403.75;;;14.25;100.00
9474;BME280;8865;47.636;7.692;2023-02-17T13:02:15;99414.66;;;14.32;100.00
9474;BME280;8865;47.636;7.692;2023-02-17T13:04:43;99405.56;;;14.24;100.00
9474;BME280;8865;47.636;7.692;2023-02-17T13:10:35;99401.00;;;14.26;100.00
9474;BME280;8865;47.636;7.692;2023-02-17T13:15:33;99408.34;;;14.23;100.00
9474;BME280;8865;47.636;7.692;2023-02-17T13:23:31;99405.63;;;14.13;100.00
9474;BME280;8865;47.636;7.692;2023-02-17T13:26:05;99402.19;;;14.01;100.00
9474;BME280;8865;47.636;7.692;2023-02-17T13:28:37;99400.81;;;13.86;100.00
9474;BME280;8865;47.636;7.692;2023-02-17T13:33:45;99405.03;;;14.09;100.00
9474;BME280;8865;47.636;7.692;2023-02-17T13:36:21;99399.88;;;14.08;100.00
9474;BME280;8865;47.636;7.692;2023-02-17T13:39:00;99391.53;;;14.03;100.00
9474;BME280;8865;47.636;7.692;2023-02-17T13:41:33;99394.78;;;14.27;100.00
9474;BME280;8865;47.636;7.692;2023-02-17T13:44:16;99384.72;;;14.00;100.00
9474;BME280;8865;47.636;7.692;2023-02-17T13:46:45;99380.69;;;14.17;100.00
9474;BME280;8865;47.636;7.692;2023-02-17T13:49:20;99381.47;;;14.29;100.00
9474;BME280;8865;47.636;7.692;2023-02-17T13:51:47;99382.25;;;14.41;100.00
9474;BME280;8865;47.636;7.692;2023-02-17T13:54:14;99389.25;;;14.31;100.00
9474;BME280;8865;47.636;7.692;2023-02-17T13:56:49;99380.56;;;14.40;100.00
9474;BME280;8865;47.636;7.692;2023-02-17T13:59:16;99387.06;;;14.36;100.00
9474;BME280;8865;47.636;7.692;2023-02-17T14:01:48;99386.78;;;14.39;100.00
9474;BME280;8865;47.636;7.692;2023-02-17T14:04:22;99382.38;;;14.39;100.00
9474;BME280;8865;47.636;7.692;2023-02-17T14:06:49;99394.97;;;14.36;100.00
9474;BME280;8865;47.636;7.692;2023-02-17T14:09:23;99392.53;;;14.44;100.00
9474;BME280;8865;47.636;7.692;2023-02-17T14:11:51;99399.31;;;14.46;100.00
9474;BME280;8865;47.636;7.692;2023-02-17T14:14:18;99387.69;;;14.49;100.00
9474;BME280;8865;47.636;7.692;2023-02-17T14:16:55;99392.44;;;14.55;100.00
9474;BME280;8865;47.636;7.692;2023-02-17T14:19:22;99397.41;;;14.49;100.00
9474;BME280;8865;47.636;7.692;2023-02-17T14:24:31;99401.31;;;14.54;100.00
9474;BME280;8865;47.636;7.692;2023-02-17T14:29:42;99402.88;;;14.36;100.00
9474;BME280;8865;47.636;7.692;2023-02-17T14:32:44;99401.91;;;14.37;100.00
9474;BME280;8865;47.636;7.692;2023-02-17T14:37:37;99402.34;;;14.42;100.00
9474;BME280;8865;47.636;7.692;2023-02-17T14:40:09;99399.41;;;14.35;100.00
9474;BME280;8865;47.636;7.692;2023-02-17T14:42:39;99402.41;;;14.31;100.00
9474;BME280;8865;47.636;7.692;2023-02-17T14:45:05;99400.34;;;14.34;100.00
9474;BME280;8865;47.636;7.692;2023-02-17T14:47:31;99399.03;;;14.40;100.00
9474;BME280;8865;47.636;7.692;2023-02-17T14:49:57;99396.38;;;14.40;100.00
9474;BME280;8865;47.636;7.692;2023-02-17T14:52:24;99401.78;;;14.38;100.00
9474;BME280;8865;47.636;7.692;2023-02-17T14:54:50;99404.69;;;14.35;100.00
9474;BME280;8865;47.636;7.692;2023-02-17T14:57:18;99404.03;;;14.43;100.00
9474;BME280;8865;47.636;7.692;2023-02-17T14:59:48;99399.31;;;14.46;100.00
9474;BME280;8865;47.636;7.692;2023-02-17T15:02:19;99400.38;;;14.55;100.00
9474;BME280;8865;47.636;7.692;2023-02-17T15:04:45;99402.88;;;14.36;100.00
9474;BME280;8865;47.636;7.692;2023-02-17T15:07:13;99399.94;;;14.50;100.00
9474;BME280;8865;47.636;7.692;2023-02-17T15:09:43;99407.31;;;14.56;100.00
9474;BME280;8865;47.636;7.692;2023-02-17T15:12:20;99408.00;;;14.58;100.00
9474;BME280;8865;47.636;7.692;2023-02-17T15:14:53;99408.41;;;14.54;100.00